»·PEaware :: ASA103 KSFO-KSAN

ASA103 :: KSFO-KSAN

FLIGHT INFORMATION

Flight Status: Arrived
Operator:
Alaska Airlines
More flights by this operator :: More flights under this callsign
Pilot: Andrew C. (28419)
Aircraft: BOEING 737-800
(B738)
More flights by this aircraft type
Origin: KSFO San Francisco Intl
United States
Destination: KSAN San Diego Intl-Lindbergh
United States
More flights between these airports :: More routes between these airports
Route: +OFFSH2 MCKEY LAX COMIX2
File this flight plan on PilotEdge
Remarks: RMK / SIMBRIEF
Altitude:
(Current/Filed)
37,000ft
Speed:
(Current/Filed)
456kts
Departed: 10-Jun-20 04:51 PM
Arrived: 10-Jun-20 06:00 PM
Distance/Time
Traveled:
387nm/1:09
Distance/Time
To Go:
Arrived

Flight Plot

Page will automatically refresh every two minutes.

Flight plan parsing failed; only flown route is shown


Map Options




Map Legend


Flown Route
Filed Route
Departure Airport
Arrival Airport
Navaid (VOR, NDB)
Fix

Horizontal Profiles

Position Reports

Time Latitude Longitude Heading Altitude Ground
Speed
10-Jun-20 16:15 37.616623 -122.381285 9 19ft 0kts
10-Jun-20 16:16 37.616623 -122.381285 9 19ft 0kts
10-Jun-20 16:17 37.616623 -122.381285 9 19ft 0kts
10-Jun-20 16:18 37.616623 -122.381285 9 19ft 0kts
10-Jun-20 16:19 37.616623 -122.381285 9 19ft 0kts
10-Jun-20 16:20 37.616623 -122.381285 9 19ft 0kts
10-Jun-20 16:21 37.616623 -122.381285 9 19ft 0kts
10-Jun-20 16:22 37.616623 -122.381285 9 19ft 0kts
10-Jun-20 16:23 37.616623 -122.381285 9 19ft 0kts
10-Jun-20 16:24 37.616623 -122.381285 9 19ft 0kts
10-Jun-20 16:25 37.616623 -122.381285 9 19ft 0kts
10-Jun-20 16:26 37.616623 -122.381285 9 19ft 0kts
10-Jun-20 16:27 37.616623 -122.381285 9 19ft 0kts
10-Jun-20 16:27 37.616623 -122.381285 9 19ft 0kts
10-Jun-20 16:29 37.616623 -122.381285 9 19ft 0kts
10-Jun-20 16:29 37.616623 -122.381285 9 19ft 0kts
10-Jun-20 16:30 37.616623 -122.381285 9 19ft 0kts
10-Jun-20 16:32 37.616623 -122.381285 9 19ft 0kts
10-Jun-20 16:32 37.616623 -122.381285 9 19ft 0kts
10-Jun-20 16:33 37.616623 -122.381285 9 19ft 0kts
10-Jun-20 16:34 37.616623 -122.381285 9 19ft 0kts
10-Jun-20 16:35 37.616623 -122.381285 9 19ft 0kts
10-Jun-20 16:36 37.616623 -122.381285 9 19ft 0kts
10-Jun-20 16:37 37.616623 -122.381285 9 19ft 0kts
10-Jun-20 16:38 37.616623 -122.381285 9 19ft 0kts
10-Jun-20 16:39 37.616623 -122.381285 9 19ft 0kts
10-Jun-20 16:40 37.616623 -122.381285 9 19ft 0kts
10-Jun-20 16:41 37.616343 -122.381345 10 19ft 2kts
10-Jun-20 16:42 37.616195 -122.381792 119 19ft 0kts
10-Jun-20 16:43 37.616196 -122.381792 119 19ft 0kts
10-Jun-20 16:44 37.616179 -122.381755 118 19ft 0kts
10-Jun-20 16:45 37.615992 -122.380099 40 19ft 14kts
10-Jun-20 16:46 37.616462 -122.375456 97 19ft 18kts
10-Jun-20 16:47 37.614138 -122.368401 128 19ft 22kts
10-Jun-20 16:48 37.611304 -122.362184 118 19ft 19kts
10-Jun-20 16:49 37.612027 -122.359169 299 19ft 15kts
10-Jun-20 16:50 37.628226 -122.398721 293 1334ft 181kts
10-Jun-20 16:51 37.658538 -122.465543 298 3215ft 256kts
10-Jun-20 16:52 37.651295 -122.543878 205 6341ft 273kts
10-Jun-20 16:53 37.583811 -122.590408 216 9498ft 283kts
10-Jun-20 16:54 37.515280 -122.653843 216 11188ft 341kts
10-Jun-20 16:55 37.424419 -122.686647 172 14041ft 359kts
10-Jun-20 16:56 37.324510 -122.662093 170 16804ft 373kts
10-Jun-20 16:57 37.220989 -122.636177 170 19272ft 386kts
10-Jun-20 16:58 37.114110 -122.609443 171 21506ft 399kts
10-Jun-20 16:59 37.003636 -122.581977 171 23518ft 410kts
10-Jun-20 17:00 36.891660 -122.553490 171 25334ft 421kts
10-Jun-20 17:01 36.775359 -122.523219 171 27016ft 431kts
10-Jun-20 17:02 36.656344 -122.492350 171 28536ft 441kts
10-Jun-20 17:03 36.534881 -122.460921 171 29993ft 448kts
10-Jun-20 17:04 36.417473 -122.411291 147 31658ft 457kts
10-Jun-20 17:05 36.329367 -122.295544 134 33199ft 462kts
10-Jun-20 17:06 36.246293 -122.174553 134 34566ft 460kts
10-Jun-20 17:07 36.163536 -122.054242 134 35841ft 457kts
10-Jun-20 17:08 36.080780 -121.934268 134 36924ft 457kts
10-Jun-20 17:09 35.997229 -121.813617 134 37081ft 463kts
10-Jun-20 17:10 35.913866 -121.693617 134 37044ft 459kts
10-Jun-20 17:11 35.830190 -121.573593 134 37003ft 460kts
10-Jun-20 17:12 35.746301 -121.453687 134 36999ft 460kts
10-Jun-20 17:13 35.661994 -121.333586 134 36999ft 459kts
10-Jun-20 17:14 35.578357 -121.214870 134 37000ft 459kts
10-Jun-20 17:15 35.494154 -121.095766 134 36996ft 461kts
10-Jun-20 17:16 35.418736 -120.968420 127 37003ft 461kts
10-Jun-20 17:17 35.345576 -120.839075 128 37017ft 462kts
10-Jun-20 17:18 35.272020 -120.709385 127 37018ft 462kts
10-Jun-20 17:19 35.198701 -120.580524 127 37018ft 462kts
10-Jun-20 17:20 35.124819 -120.451080 127 37018ft 462kts
10-Jun-20 17:21 35.051117 -120.322305 128 37017ft 461kts
10-Jun-20 17:22 34.977244 -120.193826 128 37019ft 461kts
10-Jun-20 17:23 34.903254 -120.065605 128 37024ft 461kts
10-Jun-20 17:24 34.829021 -119.937271 128 37025ft 461kts
10-Jun-20 17:25 34.754961 -119.809874 128 37020ft 461kts
10-Jun-20 17:26 34.680793 -119.682810 128 37018ft 461kts
10-Jun-20 17:27 34.606460 -119.555846 128 37018ft 461kts
10-Jun-20 17:28 34.531753 -119.428681 128 37018ft 461kts
10-Jun-20 17:29 34.456945 -119.301784 129 37018ft 461kts
10-Jun-20 17:30 34.382054 -119.175162 128 37018ft 460kts
10-Jun-20 17:31 34.307288 -119.049238 128 37018ft 460kts
10-Jun-20 17:32 34.232205 -118.923237 128 37043ft 460kts
10-Jun-20 17:33 34.157010 -118.797368 128 37035ft 460kts
10-Jun-20 17:34 34.081576 -118.671724 128 36990ft 460kts
10-Jun-20 17:35 34.006243 -118.546585 128 36981ft 455kts
10-Jun-20 17:36 33.928218 -118.424451 135 35893ft 453kts
10-Jun-20 17:37 33.843714 -118.315476 135 34875ft 452kts
10-Jun-20 17:38 33.757040 -118.203469 135 32637ft 461kts
10-Jun-20 17:39 33.670360 -118.089474 134 29469ft 460kts
10-Jun-20 17:40 33.586230 -117.979228 134 27181ft 438kts
10-Jun-20 17:41 33.502548 -117.876870 137 24815ft 421kts
10-Jun-20 17:42 33.419515 -117.782006 139 22451ft 406kts
10-Jun-20 17:43 33.336182 -117.693611 139 20104ft 393kts
10-Jun-20 17:44 33.255572 -117.607874 139 17770ft 382kts
10-Jun-20 17:45 33.176867 -117.525040 139 15449ft 371kts
10-Jun-20 17:46 33.097070 -117.449446 145 13159ft 358kts
10-Jun-20 17:47 33.016196 -117.382894 144 11047ft 342kts
10-Jun-20 17:48 32.943706 -117.321881 144 10272ft 300kts
10-Jun-20 17:49 32.877545 -117.266153 145 9071ft 285kts
10-Jun-20 17:50 32.817407 -117.212216 128 7735ft 264kts
10-Jun-20 17:51 32.793861 -117.128866 104 6434ft 266kts
10-Jun-20 17:52 32.775306 -117.047663 107 5964ft 236kts
10-Jun-20 17:53 32.755630 -116.973829 122 5068ft 238kts
10-Jun-20 17:54 32.703451 -116.961710 217 4002ft 187kts
10-Jun-20 17:55 32.689952 -117.014104 285 3112ft 171kts
10-Jun-20 17:56 32.704043 -117.068157 285 2225ft 171kts
10-Jun-20 17:57 32.716227 -117.119029 287 1131ft 149kts
10-Jun-20 17:58 32.727789 -117.166144 287 364ft 147kts
10-Jun-20 17:59 32.736066 -117.200086 285 25ft 33kts
10-Jun-20 18:00 32.733450 -117.202841 201 26ft 7kts
10-Jun-20 18:01 32.733344 -117.203500 270 26ft 0kts
10-Jun-20 18:02 32.733344 -117.203500 270 26ft 0kts
10-Jun-20 18:03 32.733344 -117.203500 270 26ft 0kts
10-Jun-20 18:04 32.733344 -117.203500 270 26ft 0kts
10-Jun-20 18:05 32.733344 -117.203500 270 26ft 0kts
10-Jun-20 18:06 32.733344 -117.203500 270 26ft 0kts

Navigation Log

Ident Type
Flight plan parsing failed, navigation log unavailable